Time;durP1;ratioP1;P1;durP2;ratioP2;P2;SDS_P1;SDS_P2;PMS_P1;PMS_P2;Temp;Humidity;BMP_temperature;BMP_pressure;BME280_temperature;BME280_humidity;BME280_pressure;Samples;Min_cycle;Max_cycle;Signal;HPM_P1;HPM_P2
2024/03/07 00:00:15;;;;;;;22.90;13.60;;;;;;;0.46;62.01;100196.11;107525;1254;68009;-40
2024/03/07 00:02:44;;;;;;;22.80;13.40;;;;;;;0.42;62.33;100193.20;107616;1254;72233;-40
2024/03/07 00:05:14;;;;;;;24.10;14.20;;;;;;;0.43;62.64;100191.34;107639;1257;60430;-40
2024/03/07 00:07:42;;;;;;;23.90;13.40;;;;;;;0.43;62.74;100191.01;107636;1254;59263;-40
2024/03/07 00:10:10;;;;;;;19.40;12.20;;;;;;;0.48;62.72;100186.61;107410;1255;73923;-40
2024/03/07 00:12:41;;;;;;;22.30;14.00;;;;;;;0.54;62.43;100189.26;107399;1254;68108;-40
2024/03/07 00:15:10;;;;;;;21.60;13.50;;;;;;;0.57;62.17;100183.70;105875;1254;1003540;-40
2024/03/07 00:17:38;;;;;;;22.90;12.90;;;;;;;0.59;62.06;100183.95;107556;1253;60223;-40
2024/03/07 00:20:13;;;;;;;21.40;13.60;;;;;;;0.61;61.62;100183.20;107420;1254;59302;-40
2024/03/07 00:22:43;;;;;;;23.20;13.50;;;;;;;0.60;61.39;100183.04;107508;1254;73886;-40
2024/03/07 00:25:11;;;;;;;22.30;14.00;;;;;;;0.57;61.48;100182.42;107633;1254;66292;-40
2024/03/07 00:27:39;;;;;;;19.80;12.90;;;;;;;0.53;61.30;100184.88;107482;1260;72658;-40
2024/03/07 00:30:08;;;;;;;22.60;14.10;;;;;;;0.50;61.81;100184.41;107460;1253;60266;-39
2024/03/07 00:32:39;;;;;;;;;;;;;;;0.51;62.10;100185.00;107537;1254;60403;-40
2024/03/07 00:35:08;;;;;;;21.60;13.20;;;;;;;0.48;61.91;100181.80;107529;1254;73864;-39
2024/03/07 00:37:39;;;;;;;17.30;12.20;;;;;;;0.43;61.67;100179.64;107638;1254;66766;-40
2024/03/07 00:40:08;;;;;;;20.40;13.70;;;;;;;0.37;61.66;100177.84;107463;1254;72686;-39
2024/03/07 00:42:36;;;;;;;19.60;13.20;;;;;;;0.34;61.95;100177.11;106824;1254;1003618;-40
2024/03/07 00:45:05;;;;;;;20.40;13.30;;;;;;;0.33;62.22;100175.19;107649;1254;60657;-40
2024/03/07 00:47:33;;;;;;;23.10;13.80;;;;;;;0.31;62.12;100174.45;107569;1259;73886;-40
2024/03/07 00:50:01;;;;;;;17.90;12.70;;;;;;;0.26;61.99;100175.42;107489;1254;67361;-40
2024/03/07 00:52:29;;;;;;;23.00;13.60;;;;;;;0.21;62.13;100175.17;107473;1258;72699;-40
2024/03/07 00:54:57;;;;;;;19.30;12.40;;;;;;;0.19;61.89;100176.40;106767;1254;1003555;-40
2024/03/07 00:57:24;;;;;;;21.70;12.50;;;;;;;0.08;62.13;100167.48;107611;1254;60278;-40
2024/03/07 00:59:52;;;;;;;18.40;11.50;;;;;;;0.10;62.13;100174.71;107362;1260;72660;-40
2024/03/07 01:02:19;;;;;;;18.00;10.90;;;;;;;0.10;62.17;100172.16;107390;1254;66298;-40
2024/03/07 01:04:48;;;;;;;20.80;11.90;;;;;;;0.08;62.28;100172.70;107558;1254;72663;-40
2024/03/07 01:07:16;;;;;;;17.60;11.70;;;;;;;0.05;62.38;100172.55;107598;1254;60183;-39
2024/03/07 01:09:43;;;;;;;19.10;11.80;;;;;;;0.05;62.51;100174.48;107592;1254;60421;-39
2024/03/07 01:12:12;;;;;;;19.20;11.90;;;;;;;0.07;62.37;100180.23;107590;1254;74410;-40
2024/03/07 01:14:39;;;;;;;17.70;11.90;;;;;;;0.06;62.23;100180.91;107504;1254;67061;-39
2024/03/07 01:17:08;;;;;;;16.80;11.40;;;;;;;0.05;61.88;100180.02;107565;1254;72649;-39
2024/03/07 01:19:37;;;;;;;16.90;12.10;;;;;;;0.01;61.91;100181.98;107575;1254;60543;-40
2024/03/07 01:22:05;;;;;;;15.30;9.30;;;;;;;-0.04;61.97;100179.27;107603;1256;59979;-39
2024/03/07 01:24:33;;;;;;;16.90;11.70;;;;;;;-0.06;62.23;100181.80;107661;1254;73867;-39
2024/03/07 01:27:01;;;;;;;19.90;12.20;;;;;;;-0.02;62.44;100182.95;107594;1254;67560;-39
2024/03/07 01:29:29;;;;;;;21.00;11.00;;;;;;;0.01;62.48;100185.24;107491;1253;72776;-40
2024/03/07 01:31:56;;;;;;;16.30;11.10;;;;;;;0.07;62.33;100180.33;107494;1254;61048;-39
2024/03/07 01:34:24;;;;;;;20.20;11.70;;;;;;;0.14;62.23;100177.27;107551;1254;60379;-39
2024/03/07 01:36:51;;;;;;;17.20;11.10;;;;;;;0.17;62.19;100178.71;107634;1254;72947;-40
2024/03/07 01:39:19;;;;;;;20.20;12.30;;;;;;;0.18;62.23;100180.25;106889;1254;1003042;-40
2024/03/07 01:41:47;;;;;;;19.10;12.20;;;;;;;0.22;62.31;100179.75;107623;1257;70685;-39
2024/03/07 01:44:15;;;;;;;17.50;11.30;;;;;;;0.24;62.08;100175.75;107657;1254;60412;-39
2024/03/07 01:46:43;;;;;;;16.80;12.00;;;;;;;0.25;62.07;100179.05;107519;1253;60272;-40
2024/03/07 01:49:11;;;;;;;18.60;11.70;;;;;;;0.25;61.89;100175.95;107520;1259;73260;-40
2024/03/07 01:51:39;;;;;;;18.50;11.70;;;;;;;0.23;61.85;100180.77;107493;1254;67894;-39
2024/03/07 01:54:07;;;;;;;19.00;11.70;;;;;;;0.18;61.42;100177.43;107496;1254;73109;-40
2024/03/07 01:56:36;;;;;;;15.70;11.30;;;;;;;0.13;61.66;100177.66;107381;1253;60431;-40
2024/03/07 01:59:05;;;;;;;17.20;11.50;;;;;;;0.11;61.74;100179.77;107278;1254;59578;-39
2024/03/07 02:01:33;;;;;;;16.60;11.50;;;;;;;0.11;61.84;100177.44;107374;1258;73824;-40
2024/03/07 02:04:00;;;;;;;18.20;11.30;;;;;;;0.13;62.22;100176.38;107339;1253;65437;-40
2024/03/07 02:06:28;;;;;;;16.00;11.20;;;;;;;0.16;62.14;100178.39;107306;1257;72414;-40
2024/03/07 02:08:56;;;;;;;16.20;11.00;;;;;;;0.17;62.01;100183.66;107437;1257;60514;-39
2024/03/07 02:11:24;;;;;;;15.50;11.30;;;;;;;0.19;61.95;100178.77;107510;1255;60132;-40
2024/03/07 02:13:52;;;;;;;15.80;10.40;;;;;;;0.17;61.64;100182.81;107421;1254;73851;-40
2024/03/07 02:16:20;;;;;;;18.10;10.90;;;;;;;0.14;61.55;100185.11;107477;1254;68380;-39
2024/03/07 02:18:47;;;;;;;16.70;11.40;;;;;;;0.15;61.84;100187.30;107503;1254;73181;-39
2024/03/07 02:21:15;;;;;;;17.80;11.60;;;;;;;0.13;61.82;100181.55;107381;1253;60364;-40
2024/03/07 02:23:43;;;;;;;18.80;11.10;;;;;;;0.12;61.84;100187.73;107546;1254;60463;-39
2024/03/07 02:26:11;;;;;;;16.20;10.90;;;;;;;0.11;61.61;100189.59;106857;1254;1003554;-39
2024/03/07 02:28:39;;;;;;;18.30;10.20;;;;;;;0.04;61.58;100187.91;107512;1254;67104;-40
2024/03/07 02:31:06;;;;;;;15.80;10.30;;;;;;;0.00;61.81;100184.17;107477;1254;71415;-40
2024/03/07 02:33:34;;;;;;;12.20;9.10;;;;;;;-0.01;62.00;100185.73;107593;1254;60466;-39
2024/03/07 02:36:03;;;;;;;13.80;9.60;;;;;;;-0.04;61.57;100185.48;105872;1254;1003391;-40
2024/03/07 02:38:31;;;;;;;13.00;8.60;;;;;;;-0.09;61.55;100183.82;107650;1253;73801;-40
2024/03/07 02:40:59;;;;;;;12.90;8.90;;;;;;;-0.13;61.52;100184.58;107579;1254;67919;-39
2024/03/07 02:43:26;;;;;;;12.90;8.80;;;;;;;-0.17;61.74;100181.39;107556;1254;71438;-39
2024/03/07 02:45:54;;;;;;;14.90;10.20;;;;;;;-0.19;61.87;100182.23;107580;1254;60440;-40
2024/03/07 02:48:22;;;;;;;14.10;8.80;;;;;;;-0.15;61.73;100182.61;107630;1254;59615;-40
2024/03/07 02:50:51;;;;;;;12.00;7.20;;;;;;;-0.09;61.53;100181.59;107515;1254;73843;-39
2024/03/07 02:53:18;;;;;;;13.40;9.10;;;;;;;-0.07;61.41;100180.10;107427;1253;67689;-39
2024/03/07 02:55:46;;;;;;;17.10;9.80;;;;;;;-0.05;61.62;100183.66;107504;1257;70870;-40
2024/03/07 02:58:14;;;;;;;13.90;9.60;;;;;;;-0.00;61.66;100182.64;107546;1253;59559;-40
2024/03/07 03:00:42;;;;;;;13.70;9.50;;;;;;;0.03;61.22;100178.95;107556;1253;60504;-39
2024/03/07 03:03:09;;;;;;;15.60;10.10;;;;;;;0.05;61.51;100177.20;107471;1254;74161;-40
2024/03/07 03:05:38;;;;;;;14.50;9.50;;;;;;;0.10;61.55;100176.64;107599;1254;66703;-40
2024/03/07 03:08:06;;;;;;;16.10;9.70;;;;;;;0.13;61.47;100179.72;107643;1254;72622;-39
2024/03/07 03:10:35;;;;;;;16.20;10.20;;;;;;;0.16;61.54;100177.52;107589;1254;60371;-40
2024/03/07 03:13:03;;;;;;;18.90;9.70;;;;;;;0.17;61.49;100177.52;107658;1253;60607;-40
2024/03/07 03:15:31;;;;;;;16.70;10.60;;;;;;;0.17;61.35;100175.71;106846;1252;1002944;-39
2024/03/07 03:18:02;;;;;;;15.20;9.90;;;;;;;0.18;61.36;100177.54;107587;1254;67859;-39
2024/03/07 03:20:34;;;;;;;16.40;10.00;;;;;;;0.19;61.15;100174.87;107550;1253;72702;-40
2024/03/07 03:23:03;;;;;;;14.30;9.20;;;;;;;0.14;61.10;100175.40;107464;1254;60971;-40
2024/03/07 03:25:34;;;;;;;15.80;10.00;;;;;;;0.11;61.21;100175.73;107520;1254;59220;-39
2024/03/07 03:28:03;;;;;;;14.10;9.90;;;;;;;0.09;61.19;100176.81;107578;1254;72596;-39
2024/03/07 03:30:32;;;;;;;15.50;10.30;;;;;;;0.07;61.38;100176.64;107621;1257;66291;-40
2024/03/07 03:33:00;;;;;;;14.10;9.50;;;;;;;0.06;61.28;100177.88;106862;1254;1002978;-40
2024/03/07 03:35:28;;;;;;;14.80;9.30;;;;;;;0.05;61.20;100180.86;107580;1254;60546;-39
2024/03/07 03:37:55;;;;;;;13.60;9.10;;;;;;;0.01;60.90;100183.38;107612;1254;60511;-40
2024/03/07 03:40:23;;;;;;;15.00;9.50;;;;;;;-0.02;60.95;100182.32;107455;1254;73818;-40
2024/03/07 03:42:51;;;;;;;11.10;8.70;;;;;;;0.01;61.52;100184.23;107408;1254;66288;-39
2024/03/07 03:45:19;;;;;;;15.60;10.20;;;;;;;0.05;61.58;100187.32;107550;1254;71476;-39
2024/03/07 03:47:47;;;;;;;12.00;9.40;;;;;;;0.05;61.30;100189.55;107508;1256;60335;-40
2024/03/07 03:50:15;;;;;;;15.80;9.50;;;;;;;0.04;61.24;100191.17;107415;1254;59643;-39
2024/03/07 03:52:43;;;;;;;13.50;9.30;;;;;;;0.04;61.20;100192.06;107524;1253;73877;-39
2024/03/07 03:55:11;;;;;;;14.30;10.70;;;;;;;0.07;61.35;100192.48;107511;1254;67591;-40
2024/03/07 03:57:39;;;;;;;14.80;10.00;;;;;;;0.09;61.48;100195.05;107579;1254;72663;-40
2024/03/07 04:00:14;;;;;;;14.50;9.50;;;;;;;0.08;60.91;100194.94;107629;1253;60511;-39
2024/03/07 04:02:48;;;;;;;13.10;9.80;;;;;;;0.05;61.16;100194.14;107485;1254;60335;-40
2024/03/07 04:05:19;;;;;;;15.50;10.70;;;;;;;0.03;60.82;100197.61;107507;1254;72550;-40
2024/03/07 04:07:46;;;;;;;;;;;;;;;0.01;60.95;100197.82;106823;1254;1003199;-39
2024/03/07 04:10:16;;;;;;;15.40;10.50;;;;;;;-0.01;60.78;100198.10;107583;1254;72709;-39
2024/03/07 04:12:44;;;;;;;14.50;9.50;;;;;;;-0.05;61.04;100194.70;107597;1253;60453;-40
2024/03/07 04:15:16;;;;;;;14.20;9.20;;;;;;;-0.09;60.94;100196.09;107517;1253;60402;-40
2024/03/07 04:17:46;;;;;;;12.60;8.90;;;;;;;-0.13;60.88;100196.09;107503;1254;74038;-39
2024/03/07 04:20:17;;;;;;;14.70;9.10;;;;;;;-0.19;60.90;100196.79;107511;1254;66291;-40
2024/03/07 04:22:47;;;;;;;16.50;9.80;;;;;;;-0.25;61.06;100198.61;106722;1254;1003600;-40
2024/03/07 04:25:14;;;;;;;14.00;9.30;;;;;;;-0.30;61.03;100199.14;107539;1254;60449;-39
2024/03/07 04:27:42;;;;;;;15.90;10.00;;;;;;;-0.33;61.36;100202.80;106776;1253;1003043;-39
2024/03/07 04:30:10;;;;;;;13.80;9.40;;;;;;;-0.31;61.61;100206.23;107375;1254;72396;-40
2024/03/07 04:32:38;;;;;;;15.50;10.20;;;;;;;-0.27;61.71;100210.34;107378;1254;67565;-40
2024/03/07 04:35:07;;;;;;;18.90;10.90;;;;;;;-0.24;61.44;100209.70;106798;1254;1002985;-39
2024/03/07 04:37:39;;;;;;;15.80;10.50;;;;;;;-0.25;61.22;100209.48;107416;1254;60450;-39
2024/03/07 04:40:18;;;;;;;14.10;9.70;;;;;;;-0.26;61.38;100209.91;107507;1254;60287;-40
2024/03/07 04:42:50;;;;;;;13.70;9.30;;;;;;;-0.24;61.46;100213.52;107462;1254;74219;-39
2024/03/07 04:45:18;;;;;;;13.30;9.10;;;;;;;-0.23;61.41;100210.02;107533;1254;66928;-39
2024/03/07 04:47:46;;;;;;;12.60;9.20;;;;;;;-0.21;61.32;100209.42;107546;1253;72653;-40
2024/03/07 04:50:17;;;;;;;11.10;7.50;;;;;;;-0.22;61.20;100211.88;107487;1253;60190;-40
2024/03/07 04:52:46;;;;;;;17.40;10.50;;;;;;;-0.23;61.43;100216.29;107539;1253;60332;-39
2024/03/07 04:55:16;;;;;;;17.80;12.20;;;;;;;-0.24;61.17;100215.75;107507;1254;73835;-39
2024/03/07 04:57:44;;;;;;;16.00;10.20;;;;;;;-0.25;61.35;100215.23;107429;1254;68127;-40
2024/03/07 05:00:13;;;;;;;12.60;9.10;;;;;;;-0.26;61.41;100218.70;107576;1254;71444;-39
2024/03/07 05:02:44;;;;;;;13.10;9.50;;;;;;;-0.26;61.34;100217.52;107613;1254;60486;-39
2024/03/07 05:05:12;;;;;;;15.30;10.40;;;;;;;-0.24;61.29;100220.45;107612;1253;60495;-40
2024/03/07 05:07:41;;;;;;;15.70;9.70;;;;;;;-0.21;61.52;100217.36;107460;1254;72636;-40
2024/03/07 05:10:10;;;;;;;13.60;9.20;;;;;;;-0.19;61.30;100222.14;107504;1254;66461;-39
2024/03/07 05:12:37;;;;;;;11.70;8.70;;;;;;;-0.20;61.06;100222.58;107573;1254;71438;-40
2024/03/07 05:15:06;;;;;;;11.20;8.60;;;;;;;-0.24;61.11;100222.53;107469;1253;60159;-40
2024/03/07 05:17:34;;;;;;;12.50;8.80;;;;;;;-0.23;61.32;100228.07;107590;1258;60389;-39
2024/03/07 05:20:09;;;;;;;12.70;9.10;;;;;;;-0.21;61.32;100226.00;107380;1254;73851;-39
2024/03/07 05:22:55;;;;;;;12.50;8.80;;;;;;;-0.21;61.14;100228.02;107352;1254;67665;-40
2024/03/07 05:25:22;;;;;;;13.50;8.70;;;;;;;-0.17;61.28;100234.95;107390;1254;71722;-40
2024/03/07 05:27:50;;;;;;;14.30;8.90;;;;;;;-0.16;60.94;100234.15;107351;1254;60392;-39
2024/03/07 05:30:19;;;;;;;12.20;8.50;;;;;;;-0.17;60.68;100233.29;107588;1254;60281;-39
2024/03/07 05:32:47;;;;;;;14.70;8.50;;;;;;;-0.21;60.57;100234.58;106840;1253;1002859;-40
2024/03/07 05:35:16;;;;;;;10.90;8.30;;;;;;;-0.21;60.71;100236.23;107469;1254;67607;-40
2024/03/07 05:37:50;;;;;;;10.80;7.80;;;;;;;-0.22;60.67;100238.52;106833;1253;1002862;-39
2024/03/07 05:40:21;;;;;;;13.40;8.50;;;;;;;-0.20;60.65;100238.25;107539;1254;60391;-39
2024/03/07 05:42:49;;;;;;;13.50;8.20;;;;;;;-0.18;60.47;100241.33;107541;1254;60355;-40
2024/03/07 05:45:17;;;;;;;12.20;8.20;;;;;;;-0.19;60.12;100238.03;107548;1254;73898;-40
2024/03/07 05:47:47;;;;;;;14.70;8.60;;;;;;;-0.16;60.38;100246.30;107522;1254;67879;-39
2024/03/07 05:50:16;;;;;;;11.30;8.30;;;;;;;-0.18;60.24;100234.15;107602;1254;72653;-40
2024/03/07 05:52:44;;;;;;;12.40;8.70;;;;;;;-0.10;60.19;100242.19;107661;1253;60415;-40
2024/03/07 05:55:12;;;;;;;13.60;8.80;;;;;;;-0.11;60.19;100243.21;107535;1254;60322;-39
2024/03/07 05:57:40;;;;;;;12.60;9.10;;;;;;;-0.13;59.89;100242.41;107538;1254;74379;-39
2024/03/07 06:00:14;;;;;;;13.20;9.10;;;;;;;-0.14;60.15;100244.59;106842;1254;1002906;-40
2024/03/07 06:02:42;;;;;;;14.10;9.90;;;;;;;-0.16;59.83;100245.45;107496;1254;72473;-40
2024/03/07 06:05:15;;;;;;;13.00;8.90;;;;;;;-0.17;60.15;100249.23;107530;1254;60545;-39
2024/03/07 06:07:45;;;;;;;16.40;11.10;;;;;;;-0.15;60.55;100252.42;107486;1253;60441;-40
2024/03/07 06:10:16;;;;;;;;;;;;;;;-0.13;60.02;100252.05;107456;1254;73831;-40
2024/03/07 06:12:45;;;;;;;24.20;13.50;;;;;;;-0.16;59.82;100254.03;107474;1254;66310;-40
2024/03/07 06:15:31;;;;;;;13.00;9.30;;;;;;;-0.17;60.44;100254.88;107427;1254;71161;-39
2024/03/07 06:17:59;;;;;;;12.60;8.70;;;;;;;-0.15;60.07;100256.96;107429;1254;60438;-40
2024/03/07 06:20:27;;;;;;;11.40;8.20;;;;;;;-0.14;60.20;100255.36;107474;1254;60276;-39
2024/03/07 06:22:57;;;;;;;13.20;8.80;;;;;;;-0.14;60.02;100255.14;107499;1255;73840;-39
2024/03/07 06:25:36;;;;;;;13.70;8.70;;;;;;;-0.15;59.47;100256.02;107570;1254;67936;-39
2024/03/07 06:28:09;;;;;;;12.10;8.60;;;;;;;-0.18;59.42;100254.17;107497;1254;72661;-40
2024/03/07 06:30:39;;;;;;;12.10;8.80;;;;;;;-0.19;59.55;100255.40;107531;1254;60370;-39
2024/03/07 06:33:07;;;;;;;15.50;10.20;;;;;;;-0.18;59.56;100255.77;106781;1254;1003679;-39
2024/03/07 06:35:38;;;;;;;15.60;10.20;;;;;;;-0.18;59.36;100257.33;107554;1254;73854;-40
2024/03/07 06:38:08;;;;;;;15.50;9.60;;;;;;;-0.17;59.49;100252.21;107483;1255;68269;-40
2024/03/07 06:40:42;;;;;;;13.10;8.50;;;;;;;-0.12;59.83;100253.86;107493;1254;71705;-39
2024/03/07 06:43:10;;;;;;;12.60;9.30;;;;;;;-0.10;59.85;100254.61;107486;1254;60418;-39
2024/03/07 06:45:38;;;;;;;10.50;8.40;;;;;;;-0.18;59.94;100243.95;107547;1254;60354;-40
2024/03/07 06:48:09;;;;;;;13.50;9.10;;;;;;;-0.16;60.22;100253.66;107437;1253;73992;-40
2024/03/07 06:50:37;;;;;;;11.70;8.70;;;;;;;-0.16;60.37;100256.80;107419;1253;66876;-39
2024/03/07 06:53:06;;;;;;;14.60;9.50;;;;;;;-0.14;60.69;100258.17;107484;1253;72500;-40
2024/03/07 06:55:35;;;;;;;9.60;6.70;;;;;;;-0.11;60.70;100258.82;107563;1254;60299;-40
2024/03/07 06:58:04;;;;;;;13.00;8.70;;;;;;;-0.07;60.62;100262.55;107388;1253;60325;-39
2024/03/07 07:00:36;;;;;;;14.90;9.30;;;;;;;-0.06;60.52;100261.66;107393;1254;74248;-40
2024/03/07 07:03:06;;;;;;;13.40;8.80;;;;;;;-0.06;60.44;100261.06;107465;1254;66942;-40
2024/03/07 07:05:34;;;;;;;8.70;6.80;;;;;;;-0.04;60.24;100263.09;107523;1253;72679;-39
2024/03/07 07:08:04;;;;;;;11.80;8.50;;;;;;;-0.02;60.16;100264.31;107420;1254;60437;-39
2024/03/07 07:10:32;;;;;;;10.70;7.30;;;;;;;-0.01;59.73;100264.64;107493;1254;60709;-40
2024/03/07 07:13:00;;;;;;;14.30;9.20;;;;;;;-0.01;59.46;100266.55;107522;1254;73851;-40
2024/03/07 07:15:29;;;;;;;8.40;6.10;;;;;;;-0.00;59.56;100268.09;107515;1254;66481;-40
2024/03/07 07:17:57;;;;;;;12.80;9.30;;;;;;;0.01;59.50;100270.81;106718;1257;1002980;-40
2024/03/07 07:20:25;;;;;;;14.10;9.00;;;;;;;0.03;58.68;100272.04;107498;1253;60485;-40
2024/03/07 07:22:54;;;;;;;13.10;9.20;;;;;;;0.05;58.91;100269.69;107553;1253;60303;-40
2024/03/07 07:25:22;;;;;;;13.70;8.70;;;;;;;0.13;58.97;100274.97;107501;1253;73851;-39
2024/03/07 07:27:50;;;;;;;12.80;9.30;;;;;;;0.18;58.49;100272.09;107502;1258;68887;-40
2024/03/07 07:30:19;;;;;;;13.30;8.80;;;;;;;0.19;57.96;100275.40;107572;1254;72806;-39
2024/03/07 07:32:47;;;;;;;12.00;8.90;;;;;;;0.16;57.77;100274.48;107071;1252;430466;-39
2024/03/07 07:36:24;;;;;;;12.50;9.10;;;;;;;0.19;57.78;100279.33;104121;1292;600934;-39
2024/03/07 07:38:56;;;;;;;15.00;9.30;;;;;;;0.20;57.67;100281.89;106456;1267;59267;-40
2024/03/07 07:41:24;;;;;;;17.30;10.10;;;;;;;0.21;57.33;100281.24;106458;1267;60276;-39
2024/03/07 07:43:52;;;;;;;12.60;9.20;;;;;;;0.21;57.30;100283.70;106499;1267;72341;-40
2024/03/07 07:46:20;;;;;;;14.50;9.90;;;;;;;0.24;57.35;100284.45;106549;1272;68328;-40
2024/03/07 07:48:47;;;;;;;12.00;8.70;;;;;;;0.26;57.12;100285.77;106610;1271;72796;-40
2024/03/07 07:51:15;;;;;;;11.10;8.40;;;;;;;0.25;56.76;100283.96;106512;1270;59384;-40
2024/03/07 07:53:44;;;;;;;14.80;8.30;;;;;;;0.24;57.00;100287.76;106709;1270;59262;-38
2024/03/07 07:56:11;;;;;;;11.80;8.70;;;;;;;0.27;57.51;100286.73;106762;1263;72382;-38
2024/03/07 07:58:40;;;;;;;12.70;9.00;;;;;;;0.37;57.73;100285.61;106767;1264;68023;-38
2024/03/07 08:01:09;;;;;;;14.20;9.80;;;;;;;0.47;57.61;100287.66;106712;1263;72714;-39
2024/03/07 08:03:40;;;;;;;17.30;9.90;;;;;;;0.51;57.31;100286.38;106767;1270;59703;-39
2024/03/07 08:06:08;;;;;;;14.30;9.20;;;;;;;0.53;57.64;100289.15;106721;1270;60176;-38
2024/03/07 08:08:36;;;;;;;12.80;8.90;;;;;;;0.51;57.54;100288.93;106800;1263;75282;-39
2024/03/07 08:11:04;;;;;;;15.90;10.10;;;;;;;0.54;57.61;100289.20;106809;1263;66433;-39
2024/03/07 08:13:32;;;;;;;14.90;10.00;;;;;;;0.58;57.55;100290.80;106734;1264;71476;-38
2024/03/07 08:16:00;;;;;;;17.80;11.80;;;;;;;0.56;57.46;100287.76;106660;1264;59669;-38
2024/03/07 08:18:29;;;;;;;15.90;9.60;;;;;;;0.54;57.80;100290.30;106625;1264;59580;-38
2024/03/07 08:20:57;;;;;;;16.70;10.70;;;;;;;0.55;57.85;100295.05;106635;1271;71863;-40
2024/03/07 08:23:26;;;;;;;17.70;11.00;;;;;;;0.55;58.00;100293.56;106722;1263;66269;-39
2024/03/07 08:25:54;;;;;;;15.90;11.30;;;;;;;0.57;57.98;100293.04;106742;1264;72986;-39
2024/03/07 08:28:23;;;;;;;17.20;10.70;;;;;;;0.59;57.60;100294.24;106618;1263;59650;-40
2024/03/07 08:30:51;;;;;;;16.60;10.00;;;;;;;0.55;57.40;100291.91;106639;1270;60864;-40
2024/03/07 08:33:21;;;;;;;13.40;9.30;;;;;;;0.51;57.51;100294.80;106607;1270;71881;-39
2024/03/07 08:35:52;;;;;;;16.40;11.10;;;;;;;0.56;58.08;100298.80;106637;1267;66840;-40
2024/03/07 08:38:21;;;;;;;15.50;10.20;;;;;;;0.61;57.94;100300.44;106691;1270;71831;-40
2024/03/07 08:40:48;;;;;;;16.10;10.60;;;;;;;0.65;58.04;100298.93;106655;1266;59696;-39
2024/03/07 08:43:16;;;;;;;18.50;10.90;;;;;;;0.67;57.94;100303.62;106721;1267;60175;-39
2024/03/07 08:45:44;;;;;;;14.50;10.50;;;;;;;0.70;57.78;100301.21;106708;1270;71854;-39
2024/03/07 08:48:13;;;;;;;15.70;10.50;;;;;;;0.74;58.14;100302.65;106724;1267;66869;-39
2024/03/07 08:50:41;;;;;;;14.10;10.30;;;;;;;0.79;57.74;100300.34;106657;1260;1002472;-39
2024/03/07 08:53:09;;;;;;;12.60;8.70;;;;;;;0.82;57.44;100296.32;107466;1254;59609;-38
2024/03/07 08:55:36;;;;;;;14.00;9.40;;;;;;;0.87;57.20;100296.41;107347;1254;62153;-38
2024/03/07 08:58:08;;;;;;;15.10;9.50;;;;;;;0.93;57.09;100296.08;107299;1254;75213;-38
2024/03/07 09:00:37;;;;;;;14.10;9.30;;;;;;;0.97;57.31;100297.49;107333;1254;65989;-38
2024/03/07 09:03:10;;;;;;;16.50;9.40;;;;;;;0.99;57.62;100293.81;107379;1258;70502;-39
2024/03/07 09:05:40;;;;;;;12.30;9.20;;;;;;;1.02;57.19;100292.45;107357;1254;59571;-38
2024/03/07 09:08:09;;;;;;;15.20;10.30;;;;;;;1.00;56.66;100292.38;107301;1258;59768;-39
2024/03/07 09:10:36;;;;;;;14.10;9.60;;;;;;;0.98;56.45;100292.79;107364;1254;71876;-40
2024/03/07 09:13:06;;;;;;;15.30;10.00;;;;;;;0.99;56.62;100288.14;107402;1254;67883;-39
2024/03/07 09:15:35;;;;;;;19.60;10.10;;;;;;;1.04;56.95;100287.53;107351;1260;74934;-39
2024/03/07 09:18:04;;;;;;;15.90;10.10;;;;;;;1.07;56.68;100291.15;107362;1260;59624;-39
2024/03/07 09:20:33;;;;;;;15.10;9.50;;;;;;;1.03;56.67;100291.19;107310;1259;60141;-39
2024/03/07 09:23:01;;;;;;;12.40;9.50;;;;;;;0.98;56.69;100291.88;107351;1254;72235;-38
2024/03/07 09:25:32;;;;;;;15.50;9.40;;;;;;;0.99;56.99;100291.23;107430;1256;66355;-38
2024/03/07 09:28:00;;;;;;;14.20;9.50;;;;;;;1.00;56.93;100290.39;107475;1254;73068;-39
2024/03/07 09:30:30;;;;;;;18.40;9.50;;;;;;;0.99;56.66;100291.40;107465;1254;59618;-39
2024/03/07 09:32:58;;;;;;;13.20;8.50;;;;;;;1.02;56.81;100289.15;107405;1258;59650;-39
2024/03/07 09:35:27;;;;;;;12.60;8.40;;;;;;;1.03;56.65;100292.45;107496;1255;72437;-38
2024/03/07 09:37:56;;;;;;;13.50;8.00;;;;;;;1.02;56.21;100290.64;107401;1254;66624;-39
2024/03/07 09:40:25;;;;;;;11.00;7.80;;;;;;;1.01;56.20;100290.43;107414;1259;73065;-39
2024/03/07 09:42:56;;;;;;;10.60;8.20;;;;;;;1.04;56.46;100290.52;107353;1254;59717;-38
2024/03/07 09:45:33;;;;;;;10.00;7.80;;;;;;;1.12;56.39;100291.83;107344;1254;60173;-39
2024/03/07 09:48:02;;;;;;;10.50;7.10;;;;;;;1.16;55.41;100290.42;107336;1254;73175;-39
2024/03/07 09:50:31;;;;;;;9.30;7.20;;;;;;;1.20;55.39;100289.07;107239;1254;68249;-38
2024/03/07 09:53:00;;;;;;;10.90;6.40;;;;;;;1.24;55.42;100291.61;107372;1254;71456;-38
2024/03/07 09:55:29;;;;;;;14.00;7.60;;;;;;;1.28;55.50;100289.77;107248;1254;59375;-39
2024/03/07 09:57:58;;;;;;;9.20;6.70;;;;;;;1.30;54.50;100287.69;107391;1254;62324;-39
2024/03/07 10:00:25;;;;;;;10.40;6.50;;;;;;;1.29;54.17;100286.99;107413;1259;71896;-39
2024/03/07 10:03:02;;;;;;;8.00;6.10;;;;;;;1.25;54.61;100282.75;107353;1257;67797;-38
2024/03/07 10:05:30;;;;;;;9.70;6.90;;;;;;;1.35;54.03;100287.48;107415;1254;71543;-39
2024/03/07 10:08:00;;;;;;;10.40;7.30;;;;;;;1.43;54.08;100285.73;107498;1257;59612;-38
2024/03/07 10:10:29;;;;;;;12.60;7.80;;;;;;;1.50;54.05;100281.32;106705;1254;1002959;-38
2024/03/07 10:12:59;;;;;;;12.20;6.90;;;;;;;1.51;53.38;100281.95;107469;1253;72328;-39
2024/03/07 10:15:32;;;;;;;11.00;6.60;;;;;;;1.47;53.52;100284.64;107491;1254;67939;-39
2024/03/07 10:18:02;;;;;;;9.20;6.70;;;;;;;1.41;53.06;100287.19;107469;1257;73054;-39
2024/03/07 10:20:31;;;;;;;12.30;7.50;;;;;;;1.35;53.36;100284.81;107476;1259;59752;-39
2024/03/07 10:23:02;;;;;;;10.30;6.80;;;;;;;1.30;53.25;100283.95;107447;1259;59528;-39
2024/03/07 10:25:30;;;;;;;12.70;7.00;;;;;;;1.29;53.52;100281.16;107324;1259;71868;-40
2024/03/07 10:27:57;;;;;;;8.40;6.40;;;;;;;1.31;53.43;100285.33;107386;1253;67613;-39
2024/03/07 10:30:27;;;;;;;12.70;7.20;;;;;;;1.37;54.36;100283.80;107493;1254;74839;-40
2024/03/07 10:32:57;;;;;;;12.80;7.90;;;;;;;1.44;54.62;100277.66;107506;1256;59116;-39
2024/03/07 10:35:28;;;;;;;10.20;7.90;;;;;;;1.50;54.13;100279.50;107418;1254;59814;-40
2024/03/07 10:38:06;;;;;;;10.50;7.00;;;;;;;1.50;53.31;100278.50;107434;1254;75194;-40
2024/03/07 10:40:37;;;;;;;10.10;7.00;;;;;;;1.43;53.24;100276.23;107479;1254;68481;-40
2024/03/07 10:43:09;;;;;;;10.30;6.60;;;;;;;1.40;53.41;100279.13;107448;1254;71468;-39
2024/03/07 10:45:46;;;;;;;11.50;6.90;;;;;;;1.44;53.36;100276.01;107141;1254;60322;-39
2024/03/07 10:48:19;;;;;;;10.50;7.40;;;;;;;1.48;53.25;100277.70;107378;1254;59705;-39
2024/03/07 10:51:18;;;;;;;10.10;7.60;;;;;;;1.51;53.53;100277.94;107360;1255;71937;-39
2024/03/07 10:54:30;;;;;;;9.30;7.30;;;;;;;1.56;53.88;100276.57;107361;1260;68140;-39
2024/03/07 10:57:11;;;;;;;11.10;7.20;;;;;;;1.62;54.09;100274.39;107320;1257;71478;-39
2024/03/07 10:59:40;;;;;;;10.60;7.60;;;;;;;1.68;53.88;100277.88;107521;1253;60549;-40
2024/03/07 11:02:24;;;;;;;10.40;7.80;;;;;;;1.71;53.86;100273.63;107576;1254;61002;-41
2024/03/07 11:04:53;;;;;;;12.40;8.20;;;;;;;1.74;53.61;100273.17;107458;1259;71927;-39
2024/03/07 11:07:22;;;;;;;13.70;7.70;;;;;;;1.70;53.20;100271.45;107478;1253;67821;-40
2024/03/07 11:09:51;;;;;;;11.70;8.20;;;;;;;1.62;52.73;100269.04;107482;1254;73069;-40
2024/03/07 11:12:21;;;;;;;;;;;;;;;1.51;53.27;100271.90;107346;1259;59723;-40
2024/03/07 11:14:49;;;;;;;11.70;7.40;;;;;;;1.51;54.13;100275.52;107362;1254;60095;-40
2024/03/07 11:17:19;;;;;;;11.10;8.00;;;;;;;1.55;53.85;100273.52;107203;1254;71888;-40
2024/03/07 11:19:48;;;;;;;;;;;;;;;1.53;53.67;100262.21;107380;1253;66789;-40
2024/03/07 11:22:34;;;;;;;11.70;6.20;;;;;;;1.68;54.23;100270.51;107329;1254;71458;-39